AirNav   Everest Fuels
 
 399 users online  

2D7 Beach City Airport
Beach City, Ohio, USA

GOING TO BEACH CITY?


FAA INFORMATION EFFECTIVE 10 SEPTEMBER 2020

Location

FAA Identifier: 2D7
Lat/Long: 40-38-46.8650N 081-33-21.2400W
40-38.781083N 081-33.354000W
40.6463514,-81.5559000
(estimated)
Elevation: 984 ft. / 299.9 m (surveyed)
Variation: 06W (1985)
From city: 1 mile E of BEACH CITY, OH
Time zone: UTC -4 (UTC -5 during Standard Time)
Zip code: 44608

Airport Operations

Airport use: Open to the public
Activation date: 10/1955
Control tower: no
ARTCC: CLEVELAND CENTER
FSS: CLEVELAND FLIGHT SERVICE STATION
NOTAMs facility: CLE (NOTAM-D service available)
Attendance: IREG
Pattern altitude: 1800 ft. MSL
Wind indicator: lighted
Segmented circle: no
Lights: ACTVT NSTD LIRL RWY 10/28 SS-SR - 122.85.
Beacon: white-green (lighted land airport)
ACTVT ROTG BCN SS-SR - 122.85.

Airport Communications

CTAF/UNICOM: 122.8
CLEVELAND APPROACH: 125.5
CLEVELAND DEPARTURE: 125.5
WX ASOS at PHD (12 nm SE): 121.425 (330-339-1125)
WX ASOS at CAK (17 nm N): PHONE 330-493-5260
WX AWOS-3 at 10G (19 nm W): 128.325 (330-674-6279)
  • APCH/DEP SVC PRVDD BY CLEVELAND APCH (CLE) 0600-0000. APCH/DEP SVC PRVDD BY CLEVELAND ARTCC (ZOB) ON FREQS 134.9/317.7 (MANSFIELD RCAG) 0000-0600.

Nearby radio navigation aids

VOR radial/distance  VOR name  Freq  Var
BSVr229/8.0BRIGGS VOR/DME112.4004W
ACOr214/32.0AKRON VOR/DME114.4004W

 
NDB name  Hdg/Dist  Freq  Var  ID
CADIZ322/34.923907WCFX -.-. ..-. -..-

Airport Services

Parking: hangars and tiedowns
Airframe service: NONE
Powerplant service: NONE
Bottled oxygen: NONE
Bulk oxygen: NONE

Runway Information

Runway 10/28

Dimensions: 3175 x 115 ft. / 968 x 35 m
Surface: turf, in good condition
Runway edge lights: non-standard
NSTD LIRL DUE TO 1 GREEN DTHR LGT EACH SIDE OF RWY; UNLGTD BFR EACH DTHR, 2016 FT LGTD.
Runway edge markings: DTHR MKD WITH 1 GREEN LGT ON 1 FT BUCKET EACH SIDE.
RUNWAY 10  RUNWAY 28
Latitude: 40-38.787000N40-38.775167N
Longitude: 081-33.697333W081-33.010667W
Elevation: 984.0 ft.975.0 ft.
Traffic pattern: leftleft
Runway heading: 098 magnetic, 092 true278 magnetic, 272 true
Displaced threshold: 425 ft.734 ft.
Visual slope indicator: 2-box VASI on right (3.00 degrees glide path)
Runway end identifier lights: nono
Touchdown point: yes, no lightsyes, no lights
Obstructions: 35 ft. pline, 125 ft. right of centerline
ALSO 10 FT ROAD AT RWY END, 0:1; 35 FT TREE, 95 FT DIST, 105FT L, 14:1 TO DTHR.
50 ft. trees, 100 ft. from runway, 2:1 slope to clear

Airport Ownership and Management from official FAA records

Ownership: Privately-owned
Owner: BEACH CITY ARPT INC
PO BOX 82
NAVARRE, OH 44662-0082
Phone 330-236-5041
Manager: GARY SLUTZ
10431 DOLPHIN ST SW
BEACH CITY, OH 44608-9760
Phone 330-704-5686

Airport Operational Statistics

Aircraft based on the field: 25
Single engine airplanes: 25
    
Aircraft operations: avg 117/week *
66% local general aviation
34% transient general aviation
* for 12-month period ending 29 July 2020

Additional Remarks

NO ULTRALIGHT ACFT WI 1 NMR.
ARPT CLSD TO MIL HELS.
FOR CD CTC CLEVELAND APCH AT 216-352-2323, WHEN APCH CLSD CTC CLEVELAND ARTCC AT 440-774-0223.
DEER, BIRDS, & WILDLIFE ON & INVOF ARPT.
SEASONAL CROPS AT RWY EDGE, N SIDE.

Instrument Procedures

There are no published instrument procedures at 2D7.

Some nearby airports with instrument procedures:

KPHD - Harry Clever Field Airport (12 nm SE)
KCAK - Akron-Canton Regional Airport (17 nm N)
10G - Holmes County Airport (19 nm W)
KBJJ - Wayne County Airport (20 nm NW)
KTSO - Carroll County-Tolson Airport (22 nm E)
 
Loc | Ops | Rwys | IFR | FBO | Links
Com | Nav | Svcs | Stats | Notes
Area around 2D7 (Beach City Airport)
 
Road maps at: MapQuest Bing Google
 
Aerial photo
WARNING: Photo may not be current or correct
Aerial photo of 2D7 (Beach City Airport)
Do you have a better or more recent aerial photo of Beach City Airport that you would like to share? If so, please send us your photo.

 
Sectional chart

 
Airport distance calculator
Flying to Beach City Airport? Find the distance to fly.

From to 2D7

Sunrise and sunset
Times for 22-Sep-2020
 Local
(UTC-4)
 Zulu
(UTC)
Morning civil twilight06:4810:48
Sunrise07:1611:16
Sunset19:2223:22
Evening civil twilight19:4923:49

Current date and time
Zulu (UTC)  22-Sep-2020 08:59:14
Local (UTC-4)  22-Sep-2020 04:59:14
 
METAR
KPHD 
13nm SE 
220853Z AUTO 00000KT 7SM CLR 04/03 A3031 RMK AO2 SLP266 T00390033 56010
KCAK 
17nm N 
220851Z 00000KT 10SM CLR 08/04 A3030 RMK AO2 SLP261 T00780039 56010 $
KBJJ 
20nm NW 
220756Z AUTO 00000KT 10SM CLR 03/03 A3031 RMK AO2 SLP268 T00330028
KAKR 
24nm N 
220854Z AUTO 00000KT 10SM CLR 07/04 A3030 RMK AO2 SLP259 T00720044 56009 $
TAF
KCAK 
17nm N 
220531Z 2206/2306 VRB03KT P6SM SKC FM222000 28005KT P6SM FEW250
NOTAMs
Click for the latest NOTAMs
NOTAMs are issued by the DoD/FAA and will open in a separate window not controlled by AirNav.

 

 
 

Would you like to see your business listed on this page?

 If your business provides an interesting product or service to pilots, flight crews, aircraft, or users of the Beach City Airport, you should consider listing it here.  To start the listing process, click on the button below
 
Add a business
 

Other Pages about Beach City Airport

Update a link
 
Copyright © AirNav, LLC. All rights reserved. Privacy Policy  Contact